createdAt,value
2022-11-30T00:00:22.199Z,19.48
2022-11-30T00:02:48.882Z,18.33
2022-11-30T00:05:15.829Z,20.55
2022-11-30T00:07:42.378Z,19.25
2022-11-30T00:10:09.531Z,19.75
2022-11-30T00:12:36.152Z,19.55
2022-11-30T00:15:03.237Z,20.13
2022-11-30T00:17:31.076Z,18.20
2022-11-30T00:19:57.768Z,19.17
2022-11-30T00:22:25.584Z,18.75
2022-11-30T00:24:52.084Z,19.02
2022-11-30T00:27:18.584Z,19.05
2022-11-30T00:29:45.108Z,17.80
2022-11-30T00:32:11.622Z,18.08
2022-11-30T00:34:39.445Z,18.65
2022-11-30T00:37:05.960Z,18.02
2022-11-30T00:39:35.450Z,18.33
2022-11-30T00:42:02.383Z,17.50
2022-11-30T00:44:28.938Z,17.63
2022-11-30T00:46:55.453Z,17.67
2022-11-30T00:49:21.939Z,17.45
2022-11-30T00:51:50.036Z,16.75
2022-11-30T00:54:16.517Z,16.60
2022-11-30T00:56:43.025Z,16.27
2022-11-30T00:59:09.638Z,16.48
2022-11-30T01:01:36.330Z,14.95
2022-11-30T01:04:05.030Z,15.18
2022-11-30T01:06:31.679Z,15.13
2022-11-30T01:09:00.015Z,13.82
2022-11-30T01:11:28.168Z,14.45
2022-11-30T01:13:55.929Z,15.20
2022-11-30T01:16:25.662Z,14.88
2022-11-30T01:18:52.389Z,16.75
2022-11-30T01:21:20.607Z,16.48
2022-11-30T01:23:48.038Z,14.52
2022-11-30T01:26:17.030Z,16.80
2022-11-30T01:28:44.647Z,16.63
2022-11-30T01:31:13.641Z,16.65
2022-11-30T01:33:41.284Z,16.85
2022-11-30T01:36:11.220Z,17.85
2022-11-30T01:38:40.409Z,17.35
2022-11-30T01:41:08.511Z,17.42
2022-11-30T01:43:44.613Z,17.95
2022-11-30T01:46:32.036Z,19.88
2022-11-30T01:49:04.985Z,17.30
2022-11-30T01:51:36.553Z,18.85
2022-11-30T01:54:05.760Z,19.80
2022-11-30T01:56:32.622Z,17.70
2022-11-30T01:59:00.649Z,17.30
2022-11-30T02:01:27.842Z,18.02
2022-11-30T02:04:01.896Z,18.75
2022-11-30T02:06:29.309Z,19.08
2022-11-30T02:08:56.098Z,19.10
2022-11-30T02:11:26.919Z,18.10
2022-11-30T02:14:04.938Z,18.88
2022-11-30T02:16:41.203Z,20.40
2022-11-30T02:19:29.802Z,18.80
2022-11-30T02:22:03.658Z,19.15
2022-11-30T02:24:44.882Z,19.77
2022-11-30T02:27:22.132Z,19.33
2022-11-30T02:29:55.340Z,20.67
2022-11-30T02:32:27.025Z,19.67
2022-11-30T02:34:57.210Z,19.70
2022-11-30T02:37:25.583Z,19.63
2022-11-30T02:39:52.089Z,19.30
2022-11-30T02:42:18.668Z,21.30
2022-11-30T02:44:49.305Z,19.42
2022-11-30T02:47:23.755Z,19.48
2022-11-30T02:50:02.612Z,20.13
2022-11-30T02:52:31.818Z,19.95
2022-11-30T02:55:00.040Z,19.58
2022-11-30T02:57:26.716Z,20.88
2022-11-30T02:59:53.759Z,19.92
2022-11-30T03:02:21.751Z,20.63
2022-11-30T03:04:48.414Z,18.70
2022-11-30T03:07:15.158Z,18.98
2022-11-30T03:09:41.673Z,18.85
2022-11-30T03:12:08.288Z,20.08
2022-11-30T03:14:34.808Z,20.05
2022-11-30T03:17:01.375Z,20.27
2022-11-30T03:19:29.249Z,17.75
2022-11-30T03:21:55.836Z,19.05
2022-11-30T03:24:22.325Z,20.05
2022-11-30T03:26:48.944Z,19.63
2022-11-30T03:29:15.588Z,18.33
2022-11-30T03:31:42.153Z,20.52
2022-11-30T03:34:08.739Z,19.33
2022-11-30T03:36:36.916Z,20.27
2022-11-30T03:39:03.726Z,20.65
2022-11-30T03:41:30.400Z,19.92
2022-11-30T03:43:56.950Z,18.58
2022-11-30T03:46:23.898Z,19.23
2022-11-30T03:48:50.459Z,19.65
2022-11-30T03:51:17.047Z,20.58
2022-11-30T03:53:44.922Z,20.17
2022-11-30T03:56:12.034Z,17.92
2022-11-30T03:58:39.114Z,18.48
2022-11-30T04:01:07.817Z,18.30
2022-11-30T04:03:35.059Z,16.52
2022-11-30T04:06:02.624Z,17.67
2022-11-30T04:08:30.194Z,19.65
2022-11-30T04:11:00.193Z,17.60
2022-11-30T04:13:28.475Z,18.35
2022-11-30T04:15:55.497Z,18.17
2022-11-30T04:18:23.738Z,17.70
2022-11-30T04:20:50.525Z,17.92
2022-11-30T04:23:17.065Z,18.52
2022-11-30T04:25:43.825Z,18.02
2022-11-30T04:28:11.735Z,16.88
2022-11-30T04:30:38.249Z,17.80
2022-11-30T04:33:04.850Z,17.55
2022-11-30T04:35:32.124Z,16.50
2022-11-30T04:37:59.107Z,17.38
2022-11-30T04:40:25.606Z,17.85
2022-11-30T04:42:52.185Z,16.58
2022-11-30T04:45:20.029Z,16.38
2022-11-30T04:47:46.544Z,15.63
2022-11-30T04:50:13.048Z,16.90
2022-11-30T04:52:39.558Z,16.52
2022-11-30T04:55:06.852Z,15.52
2022-11-30T04:57:33.362Z,16.55
2022-11-30T04:59:59.844Z,15.82
2022-11-30T05:02:29.031Z,15.18
2022-11-30T05:04:55.569Z,14.73
2022-11-30T05:07:22.167Z,15.23
2022-11-30T05:09:48.742Z,14.13
2022-11-30T05:12:15.272Z,14.98
2022-11-30T05:14:41.750Z,14.20
2022-11-30T05:17:08.238Z,14.80
2022-11-30T05:19:36.277Z,13.75
2022-11-30T05:22:02.760Z,13.73
2022-11-30T05:24:29.296Z,14.63
2022-11-30T05:26:55.831Z,13.45
2022-11-30T05:29:22.371Z,12.55
2022-11-30T05:31:49.120Z,15.02
2022-11-30T05:34:16.089Z,14.82
2022-11-30T05:36:43.984Z,13.68
2022-11-30T05:39:10.480Z,14.60
2022-11-30T05:41:37.051Z,16.05
2022-11-30T05:44:03.672Z,14.18
2022-11-30T05:46:30.293Z,12.80
2022-11-30T05:48:56.846Z,13.20
2022-11-30T05:51:23.577Z,13.82
2022-11-30T05:53:51.404Z,16.73
2022-11-30T05:56:20.025Z,13.80
2022-11-30T05:58:47.128Z,13.20
2022-11-30T06:01:20.911Z,12.85
2022-11-30T06:03:47.912Z,14.55
2022-11-30T06:06:14.610Z,13.80
2022-11-30T06:08:41.711Z,14.52
2022-11-30T06:11:09.616Z,14.48
2022-11-30T06:13:36.525Z,14.52
2022-11-30T06:16:04.636Z,15.73
2022-11-30T06:18:31.993Z,15.65
2022-11-30T06:21:02.425Z,16.02
2022-11-30T06:23:29.671Z,15.15
2022-11-30T06:25:56.325Z,15.85
2022-11-30T06:28:24.379Z,15.73
2022-11-30T06:30:51.064Z,15.48
2022-11-30T06:33:21.951Z,14.63
2022-11-30T06:35:48.610Z,16.23
2022-11-30T06:38:15.133Z,15.68
2022-11-30T06:40:41.636Z,14.75
2022-11-30T06:43:08.124Z,14.98
2022-11-30T06:45:36.196Z,17.38
2022-11-30T06:48:02.771Z,15.25
2022-11-30T06:50:29.268Z,14.55
2022-11-30T06:52:56.426Z,14.52
2022-11-30T06:55:23.331Z,15.23
2022-11-30T06:57:50.141Z,15.15
2022-11-30T07:00:17.608Z,15.10
2022-11-30T07:02:45.444Z,15.50
2022-11-30T07:05:11.945Z,15.45
2022-11-30T07:07:38.502Z,15.52
2022-11-30T07:10:06.094Z,13.68
2022-11-30T07:12:35.354Z,14.70
2022-11-30T07:15:01.831Z,15.85
2022-11-30T07:17:28.469Z,16.70
2022-11-30T07:19:56.640Z,15.05
2022-11-30T07:22:23.219Z,16.33
2022-11-30T07:24:50.049Z,16.35
2022-11-30T07:27:16.972Z,16.88
2022-11-30T07:29:43.568Z,16.33
2022-11-30T07:32:10.105Z,16.27
2022-11-30T07:34:36.617Z,17.27
2022-11-30T07:37:04.489Z,17.15
2022-11-30T07:39:31.094Z,34.17
2022-11-30T07:41:57.589Z,19.70
2022-11-30T07:44:26.078Z,16.77
2022-11-30T07:46:52.616Z,18.27
2022-11-30T07:49:19.210Z,18.35
2022-11-30T07:51:45.722Z,20.27
2022-11-30T07:54:17.764Z,21.15
2022-11-30T07:56:44.602Z,18.13
2022-11-30T07:59:11.120Z,17.55
2022-11-30T08:01:37.766Z,17.30
2022-11-30T08:04:04.664Z,16.92
2022-11-30T08:06:31.865Z,17.55
2022-11-30T08:08:59.996Z,17.33
2022-11-30T08:11:29.946Z,17.17
2022-11-30T08:13:56.753Z,20.17
2022-11-30T08:16:25.017Z,17.73
2022-11-30T08:18:51.867Z,17.42
2022-11-30T08:21:20.080Z,17.58
2022-11-30T08:23:48.765Z,17.95
2022-11-30T08:26:16.956Z,18.50
2022-11-30T08:28:46.367Z,16.08
2022-11-30T08:31:15.470Z,17.98
2022-11-30T08:33:42.466Z,18.00
2022-11-30T08:36:10.478Z,17.40
2022-11-30T08:38:37.950Z,18.90
2022-11-30T08:41:05.715Z,19.00
2022-11-30T08:43:32.596Z,19.10
2022-11-30T08:46:02.348Z,20.92
2022-11-30T08:48:28.890Z,22.33
2022-11-30T08:50:59.237Z,19.77
2022-11-30T08:53:25.744Z,20.65
2022-11-30T08:55:56.575Z,20.33
2022-11-30T08:58:23.126Z,18.25
2022-11-30T09:00:49.631Z,20.20
2022-11-30T09:03:17.546Z,21.13
2022-11-30T09:05:44.053Z,20.13
2022-11-30T09:08:10.669Z,18.67
2022-11-30T09:10:37.334Z,19.13
2022-11-30T09:13:04.068Z,20.02
2022-11-30T09:15:30.609Z,21.60
2022-11-30T09:17:57.163Z,18.55
2022-11-30T09:20:25.029Z,17.95
2022-11-30T09:22:51.597Z,17.80
2022-11-30T09:25:18.085Z,19.45
2022-11-30T09:27:44.649Z,16.63
2022-11-30T09:30:11.885Z,17.88
2022-11-30T09:32:38.457Z,16.58
2022-11-30T09:35:08.666Z,17.90
2022-11-30T09:37:40.592Z,15.95
2022-11-30T09:40:08.770Z,16.67
2022-11-30T09:42:57.257Z,16.83
2022-11-30T09:45:30.189Z,16.92
2022-11-30T09:48:18.019Z,15.52
2022-11-30T09:50:46.210Z,16.77
2022-11-30T09:53:24.587Z,17.08
2022-11-30T09:55:55.826Z,14.60
2022-11-30T09:58:30.136Z,15.75
2022-11-30T10:00:56.735Z,15.10
2022-11-30T10:03:23.839Z,15.10
2022-11-30T10:05:59.590Z,13.32
2022-11-30T10:08:39.695Z,14.77
2022-11-30T10:11:26.515Z,14.05
2022-11-30T10:14:04.839Z,14.65
2022-11-30T10:16:42.032Z,14.07
2022-11-30T10:19:23.713Z,13.85
2022-11-30T10:22:00.894Z,13.93
2022-11-30T10:24:48.577Z,13.80
2022-11-30T10:27:18.512Z,13.65
2022-11-30T10:29:45.013Z,12.70
2022-11-30T10:32:18.526Z,12.70
2022-11-30T10:34:48.561Z,13.20
2022-11-30T10:37:19.576Z,15.02
2022-11-30T10:39:58.753Z,13.30
2022-11-30T10:42:32.431Z,13.32
2022-11-30T10:45:01.468Z,13.82
2022-11-30T10:47:31.045Z,12.50
2022-11-30T10:49:57.662Z,14.48
2022-11-30T10:52:28.854Z,14.43
2022-11-30T10:55:03.765Z,15.10
2022-11-30T10:57:32.264Z,13.88
2022-11-30T11:00:03.306Z,15.45
2022-11-30T11:02:37.249Z,14.18
2022-11-30T11:05:16.118Z,13.10
2022-11-30T11:07:58.810Z,13.48
2022-11-30T11:10:34.185Z,13.07
2022-11-30T11:13:01.043Z,14.55
2022-11-30T11:15:29.413Z,13.68
2022-11-30T11:18:21.420Z,14.20
2022-11-30T11:20:48.364Z,19.27
2022-11-30T11:23:22.172Z,14.18
2022-11-30T11:25:51.860Z,13.88
2022-11-30T11:28:19.341Z,14.93
2022-11-30T11:30:46.121Z,18.52
2022-11-30T11:33:20.863Z,15.63
2022-11-30T11:35:49.109Z,15.10
2022-11-30T11:38:23.767Z,17.77
2022-11-30T11:41:01.211Z,14.15
2022-11-30T11:43:30.096Z,14.60
2022-11-30T11:46:01.467Z,13.00
2022-11-30T11:48:32.112Z,13.00
2022-11-30T11:51:08.459Z,13.13
2022-11-30T11:53:53.347Z,12.65
2022-11-30T11:56:26.032Z,12.95
2022-11-30T11:58:58.749Z,14.50
2022-11-30T12:01:40.477Z,14.20
2022-11-30T12:04:28.359Z,13.90
2022-11-30T12:06:57.720Z,26.38
2022-11-30T12:09:29.474Z,17.58
2022-11-30T12:14:25.799Z,13.15
2022-11-30T12:17:06.697Z,14.35
2022-11-30T12:19:40.542Z,13.70
2022-11-30T12:22:23.975Z,12.98
2022-11-30T12:25:06.299Z,12.77
2022-11-30T12:27:46.865Z,12.75
2022-11-30T12:30:22.008Z,12.80
2022-11-30T12:33:08.620Z,11.95
2022-11-30T12:35:45.391Z,12.13
2022-11-30T12:38:20.569Z,11.95
2022-11-30T12:40:58.194Z,11.52
2022-11-30T12:43:34.425Z,12.27
2022-11-30T12:46:09.921Z,12.45
2022-11-30T12:48:47.318Z,12.40
2022-11-30T12:51:26.403Z,12.95
2022-11-30T12:56:35.734Z,13.45
2022-11-30T12:59:15.126Z,12.00
2022-11-30T13:01:52.218Z,13.85
2022-11-30T13:04:23.885Z,13.55
2022-11-30T13:06:56.153Z,14.13
2022-11-30T13:09:28.298Z,13.80
2022-11-30T13:11:59.270Z,12.88
2022-11-30T13:14:29.620Z,13.97
2022-11-30T13:17:01.027Z,13.98
2022-11-30T13:19:44.815Z,14.93
2022-11-30T13:22:19.172Z,14.27
2022-11-30T13:24:51.220Z,14.68
2022-11-30T13:27:23.396Z,15.88
2022-11-30T13:30:04.273Z,15.40
2022-11-30T13:32:57.264Z,14.73
2022-11-30T13:35:40.479Z,15.75
2022-11-30T13:41:05.364Z,16.00
2022-11-30T13:43:36.052Z,16.58
2022-11-30T13:46:07.463Z,14.95
2022-11-30T13:48:37.949Z,16.23
2022-11-30T13:51:05.028Z,16.33
2022-11-30T13:53:33.397Z,15.35
2022-11-30T13:56:02.302Z,16.40
2022-11-30T13:58:29.749Z,16.63
2022-11-30T14:01:25.834Z,16.20
2022-11-30T14:04:35.213Z,15.82
2022-11-30T14:07:02.247Z,15.48
2022-11-30T14:09:57.806Z,16.83
2022-11-30T14:12:47.978Z,16.83
2022-11-30T14:15:50.709Z,16.23
2022-11-30T14:18:24.609Z,16.10
2022-11-30T14:20:54.645Z,17.30
2022-11-30T14:23:25.437Z,16.60
2022-11-30T14:25:54.638Z,16.25
2022-11-30T14:28:25.270Z,17.02
2022-11-30T14:30:54.784Z,17.13
2022-11-30T14:33:30.252Z,17.77
2022-11-30T14:35:59.762Z,16.50
2022-11-30T14:38:28.286Z,15.98
2022-11-30T14:40:55.256Z,17.55
2022-11-30T14:43:22.441Z,17.30
2022-11-30T14:46:04.621Z,16.10
2022-11-30T14:48:34.247Z,18.33
2022-11-30T14:51:03.200Z,19.23
2022-11-30T14:53:38.900Z,18.88
2022-11-30T14:56:13.474Z,19.85
2022-11-30T14:58:45.907Z,18.40
2022-11-30T15:01:18.002Z,18.85
2022-11-30T15:03:48.123Z,20.08
2022-11-30T15:06:16.378Z,19.85
2022-11-30T15:08:45.124Z,20.00
2022-11-30T15:11:13.386Z,21.80
2022-11-30T15:13:44.579Z,20.10
2022-11-30T15:16:18.595Z,19.55
2022-11-30T15:18:46.755Z,19.35
2022-11-30T15:21:18.832Z,19.75
2022-11-30T15:23:50.721Z,21.63
2022-11-30T15:26:20.389Z,20.05
2022-11-30T15:28:54.335Z,20.17
2022-11-30T15:31:21.154Z,23.98
2022-11-30T15:33:50.208Z,22.20
2022-11-30T15:36:34.033Z,23.00
2022-11-30T15:39:05.068Z,24.67
2022-11-30T15:41:33.590Z,26.73
2022-11-30T15:44:00.543Z,26.23
2022-11-30T15:46:33.373Z,23.48
2022-11-30T15:49:15.279Z,25.73
2022-11-30T15:51:43.643Z,26.95
2022-11-30T15:54:10.545Z,24.50
2022-11-30T15:56:37.283Z,23.80
2022-11-30T15:59:06.525Z,22.67
2022-11-30T16:01:51.317Z,27.00
2022-11-30T16:04:19.365Z,29.58
2022-11-30T16:06:47.723Z,35.08
2022-11-30T16:09:19.654Z,29.25
2022-11-30T16:14:15.556Z,25.60
2022-11-30T16:16:42.867Z,26.60
2022-11-30T16:19:09.552Z,27.08
2022-11-30T16:21:37.804Z,25.67
2022-11-30T16:24:04.940Z,24.38
2022-11-30T16:29:18.181Z,21.50
2022-11-30T16:31:44.720Z,24.13
2022-11-30T16:34:11.692Z,22.55
2022-11-30T16:36:39.568Z,21.25
2022-11-30T16:39:06.526Z,20.17
2022-11-30T16:41:34.683Z,22.58
2022-11-30T16:44:01.557Z,21.77
2022-11-30T16:46:29.721Z,21.85
2022-11-30T16:48:56.440Z,22.45
2022-11-30T16:51:25.480Z,21.80
2022-11-30T16:53:53.895Z,22.17
2022-11-30T16:56:20.792Z,20.83
2022-11-30T16:58:47.841Z,23.65
2022-11-30T17:01:17.924Z,22.10
2022-11-30T17:03:48.235Z,21.17
2022-11-30T17:06:18.171Z,20.48
2022-11-30T17:08:45.007Z,21.90
2022-11-30T17:11:18.112Z,22.23
2022-11-30T17:13:44.935Z,22.48
2022-11-30T17:16:11.772Z,21.48
2022-11-30T17:18:38.421Z,20.73
2022-11-30T17:21:05.293Z,19.85
2022-11-30T17:23:31.866Z,20.73
2022-11-30T17:25:58.404Z,20.67
2022-11-30T17:28:26.401Z,21.33
2022-11-30T17:30:52.968Z,21.20
2022-11-30T17:33:19.587Z,21.15
2022-11-30T17:35:46.090Z,20.63
2022-11-30T17:38:12.652Z,18.45
2022-11-30T17:40:39.311Z,16.45
2022-11-30T17:43:05.882Z,16.88
2022-11-30T17:45:33.828Z,15.85
2022-11-30T17:48:00.447Z,15.13
2022-11-30T17:50:27.300Z,15.35
2022-11-30T17:52:54.267Z,14.65
2022-11-30T17:55:20.778Z,14.50
2022-11-30T17:57:47.539Z,15.23
2022-11-30T18:00:14.770Z,15.07
2022-11-30T18:02:42.741Z,13.63
2022-11-30T18:05:09.541Z,13.90
2022-11-30T18:07:36.319Z,13.43
2022-11-30T18:10:03.121Z,14.18
2022-11-30T18:12:29.932Z,13.50
2022-11-30T18:14:56.425Z,12.98
2022-11-30T18:17:23.019Z,12.93
2022-11-30T18:19:51.257Z,13.50
2022-11-30T18:22:17.796Z,12.07
2022-11-30T18:24:44.397Z,14.05
2022-11-30T18:27:11.071Z,11.85
2022-11-30T18:29:38.507Z,12.43
2022-11-30T18:32:05.391Z,13.60
2022-11-30T18:34:31.943Z,12.40
2022-11-30T18:37:01.068Z,12.45
2022-11-30T18:39:27.666Z,12.27
2022-11-30T18:41:54.206Z,12.35
2022-11-30T18:44:20.728Z,11.30
2022-11-30T18:46:47.349Z,10.32
2022-11-30T18:49:13.897Z,10.23
2022-11-30T18:51:40.464Z,11.05
2022-11-30T18:54:10.232Z,11.05
2022-11-30T18:56:38.296Z,12.18
2022-11-30T18:59:07.072Z,10.85
2022-11-30T19:01:34.887Z,11.73
2022-11-30T19:04:03.788Z,13.90
2022-11-30T19:06:31.170Z,15.25
2022-11-30T19:08:58.393Z,14.25
2022-11-30T19:11:27.017Z,15.20
2022-11-30T19:13:54.376Z,12.95
2022-11-30T19:16:21.608Z,13.07
2022-11-30T19:18:48.279Z,13.40
2022-11-30T19:21:17.129Z,13.00
2022-11-30T19:23:44.226Z,11.77
2022-11-30T19:26:11.453Z,13.15
2022-11-30T19:28:40.675Z,13.45
2022-11-30T19:31:09.732Z,12.55
2022-11-30T19:33:37.500Z,13.20
2022-11-30T19:36:06.172Z,12.32
2022-11-30T19:38:32.978Z,13.35
2022-11-30T19:40:59.569Z,12.75
2022-11-30T19:43:26.260Z,13.30
2022-11-30T19:45:54.328Z,13.35
2022-11-30T19:48:20.892Z,14.38
2022-11-30T19:50:48.148Z,17.65
2022-11-30T19:53:14.796Z,16.95
2022-11-30T19:55:41.401Z,14.80
2022-11-30T19:58:07.916Z,12.93
2022-11-30T20:00:34.508Z,11.60
2022-11-30T20:03:02.492Z,13.40
2022-11-30T20:05:29.160Z,12.82
2022-11-30T20:07:55.810Z,11.25
2022-11-30T20:10:23.256Z,11.80
2022-11-30T20:12:50.410Z,10.88
2022-11-30T20:15:17.232Z,11.40
2022-11-30T20:17:43.749Z,12.40
2022-11-30T20:20:12.806Z,12.35
2022-11-30T20:22:39.649Z,12.90
2022-11-30T20:25:06.957Z,11.65
2022-11-30T20:27:34.682Z,11.07
2022-11-30T20:30:01.273Z,11.68
2022-11-30T20:32:27.793Z,10.70
2022-11-30T20:34:54.412Z,10.43
2022-11-30T20:37:22.286Z,11.02
2022-11-30T20:39:48.890Z,13.95
2022-11-30T20:42:15.433Z,9.93
2022-11-30T20:44:42.057Z,9.70
2022-11-30T20:47:08.564Z,10.02
2022-11-30T20:49:35.140Z,9.00
2022-11-30T20:52:01.670Z,8.45
2022-11-30T20:54:29.651Z,8.52
2022-11-30T20:56:56.336Z,8.50
2022-11-30T20:59:22.905Z,8.30
2022-11-30T21:01:49.470Z,7.60
2022-11-30T21:04:16.095Z,7.05
2022-11-30T21:06:42.630Z,7.03
2022-11-30T21:09:10.368Z,6.40
2022-11-30T21:11:38.211Z,5.90
2022-11-30T21:14:05.125Z,6.45
2022-11-30T21:16:31.667Z,6.70
2022-11-30T21:18:59.672Z,5.78
2022-11-30T21:21:28.523Z,5.70
2022-11-30T21:23:57.057Z,5.63
2022-11-30T21:26:25.532Z,5.28
2022-11-30T21:28:55.843Z,5.22
2022-11-30T21:31:23.428Z,5.10
2022-11-30T21:33:53.278Z,4.22
2022-11-30T21:36:21.563Z,4.82
2022-11-30T21:38:52.386Z,5.00
2022-11-30T21:41:18.973Z,5.60
2022-11-30T21:43:45.495Z,4.30
2022-11-30T21:46:15.837Z,4.35
2022-11-30T21:48:44.329Z,4.10
2022-11-30T21:51:12.580Z,4.15
2022-11-30T21:53:40.774Z,4.18
2022-11-30T21:56:09.211Z,3.75
2022-11-30T21:58:35.745Z,4.07
2022-11-30T22:01:02.467Z,4.38
2022-11-30T22:03:30.926Z,4.10
2022-11-30T22:05:59.556Z,4.25
2022-11-30T22:08:26.220Z,4.20
2022-11-30T22:10:52.801Z,4.40
2022-11-30T22:13:19.419Z,4.10
2022-11-30T22:15:46.102Z,3.42
2022-11-30T22:18:12.622Z,3.85
2022-11-30T22:20:40.485Z,3.58
2022-11-30T22:23:06.996Z,3.72
2022-11-30T22:25:33.506Z,3.47
2022-11-30T22:28:00.036Z,3.08
2022-11-30T22:30:26.539Z,3.00
2022-11-30T22:32:53.098Z,3.20
2022-11-30T22:35:19.752Z,3.20
2022-11-30T22:37:47.595Z,3.75
2022-11-30T22:40:14.501Z,3.25
2022-11-30T22:42:41.017Z,3.80
2022-11-30T22:45:08.360Z,3.30
2022-11-30T22:47:34.894Z,3.03
2022-11-30T22:50:01.521Z,3.20
2022-11-30T22:52:48.322Z,3.47
2022-11-30T22:55:16.401Z,3.38
2022-11-30T22:57:42.999Z,3.33
2022-11-30T23:00:11.021Z,3.67
2022-11-30T23:02:37.628Z,3.38
2022-11-30T23:05:04.864Z,3.72
2022-11-30T23:07:32.394Z,3.72
2022-11-30T23:09:59.085Z,3.70
2022-11-30T23:12:51.210Z,3.85
2022-11-30T23:15:13.713Z,3.75
2022-11-30T23:17:40.374Z,4.57
2022-11-30T23:20:07.949Z,3.88
2022-11-30T23:22:35.470Z,4.20
2022-11-30T23:25:02.077Z,4.35
2022-11-30T23:27:29.968Z,4.30
2022-11-30T23:29:56.532Z,5.10
2022-11-30T23:32:23.074Z,4.70
2022-11-30T23:34:50.866Z,5.55
2022-11-30T23:37:17.862Z,5.60
2022-11-30T23:39:44.393Z,6.05
2022-11-30T23:42:10.885Z,4.85
2022-11-30T23:44:38.810Z,5.40
2022-11-30T23:47:05.524Z,5.30
2022-11-30T23:49:32.211Z,5.68
2022-11-30T23:51:58.720Z,6.05
2022-11-30T23:54:25.318Z,5.90
2022-11-30T23:56:51.824Z,5.82
2022-11-30T23:59:18.418Z,5.57
